Time;durP1;ratioP1;P1;durP2;ratioP2;P2;SDS_P1;SDS_P2;PMS_P1;PMS_P2;Temp;Humidity;BMP_temperature;BMP_pressure;BME280_temperature;BME280_humidity;BME280_pressure;Samples;Min_cycle;Max_cycle;Signal;HPM_P1;HPM_P2
2022/02/06 00:00:59;;;;;;;49.10;6.55;;;;;;;6.30;100.00;101089.84;5074830;28;20465;-76
2022/02/06 00:03:25;;;;;;;44.55;6.82;;;;;;;6.32;100.00;101092.38;5075128;28;20028;-75
2022/02/06 00:05:50;;;;;;;47.22;5.57;;;;;;;6.34;100.00;101074.63;5074406;28;20038;-75
2022/02/06 00:08:17;;;;;;;41.83;6.25;;;;;;;6.32;100.00;101074.72;5073130;28;20384;-77
2022/02/06 00:10:42;;;;;;;49.38;7.82;;;;;;;6.29;100.00;101072.28;5074634;28;20377;-77
2022/02/06 00:13:08;;;;;;;50.92;7.05;;;;;;;6.29;100.00;101069.66;5074634;28;20024;-77
2022/02/06 00:15:33;;;;;;;56.00;7.13;;;;;;;6.30;100.00;101065.19;5074466;28;20028;-76
2022/02/06 00:17:58;;;;;;;39.58;6.32;;;;;;;6.29;100.00;101045.84;5074085;28;20469;-77
2022/02/06 00:20:31;;;;;;;63.08;7.60;;;;;;;6.30;100.00;101046.69;5074120;28;20079;-76
2022/02/06 00:23:00;;;;;;;61.00;7.55;;;;;;;6.28;100.00;101030.94;5074201;28;20028;-77
2022/02/06 00:28:04;;;;;;;50.38;7.13;;;;;;;6.31;100.00;101006.13;5074120;28;20105;-76
2022/02/06 00:30:45;;;;;;;58.75;8.20;;;;;;;6.30;100.00;101044.91;5074077;28;20452;-77
2022/02/06 00:33:19;;;;;;;53.93;7.43;;;;;;;6.30;100.00;101044.91;5074596;28;20054;-77
2022/02/06 00:39:01;;;;;;;49.83;7.32;;;;;;;6.33;100.00;100991.84;5073867;28;20047;-76
2022/02/06 00:41:22;;;;;;;58.50;7.90;;;;;;;6.33;100.00;101033.28;5073713;28;20033;-77
2022/02/06 00:43:48;;;;;;;73.82;9.05;;;;;;;6.34;100.00;101013.81;5074042;28;20093;-77
2022/02/06 00:46:15;;;;;;;60.53;7.32;;;;;;;6.34;100.00;100990.91;5073822;28;20067;-77
2022/02/06 00:48:45;;;;;;;70.18;9.82;;;;;;;6.37;100.00;101008.31;5073669;28;20479;-78
2022/02/06 00:53:36;;;;;;;61.00;7.97;;;;;;;6.39;100.00;100984.44;5073457;28;20043;-78
2022/02/06 00:56:02;;;;;;;67.60;7.28;;;;;;;6.43;100.00;100985.91;5073522;28;20115;-77
2022/02/06 00:58:27;;;;;;;63.67;8.75;;;;;;;6.41;100.00;100993.13;5073630;28;20123;-76
2022/02/06 01:00:53;;;;;;;49.10;6.63;;;;;;;6.42;100.00;100994.78;5073391;28;20036;-77
2022/02/06 01:03:18;;;;;;;67.80;8.30;;;;;;;6.40;100.00;100983.47;5073775;28;20453;-77
2022/02/06 01:05:44;;;;;;;61.55;7.78;;;;;;;6.40;100.00;100986.13;5073410;28;20024;-77
2022/02/06 01:08:09;;;;;;;69.47;7.60;;;;;;;6.43;100.00;100970.03;5072880;28;20085;-77
2022/02/06 01:10:35;;;;;;;56.38;8.55;;;;;;;6.46;100.00;100981.22;5073484;28;20153;-77
2022/02/06 01:13:14;;;;;;;56.28;7.85;;;;;;;6.51;100.00;100965.91;5072158;28;20033;-77
2022/02/06 01:15:45;;;;;;;50.25;7.35;;;;;;;6.50;100.00;100980.06;5073769;28;20032;-76
2022/02/06 01:18:19;;;;;;;;;;;;;;;6.48;100.00;100967.94;5074078;28;20067;-75
2022/02/06 01:20:53;;;;;;;55.47;8.00;;;;;;;6.46;100.00;100961.91;5073745;28;19969;-76
2022/02/06 01:26:07;;;;;;;54.80;7.82;;;;;;;6.42;100.00;100911.06;5073575;28;20504;-77
2022/02/06 01:28:47;;;;;;;53.90;7.40;;;;;;;6.40;100.00;100952.59;5073862;28;20036;-77
2022/02/06 01:31:44;;;;;;;59.17;7.93;;;;;;;6.44;100.00;100942.66;5073531;28;20036;-76
2022/02/06 01:34:11;;;;;;;62.97;9.23;;;;;;;6.47;100.00;100945.09;5073388;28;20036;-75
2022/02/06 01:36:48;;;;;;;59.65;8.85;;;;;;;6.46;100.00;100938.94;5073834;28;20109;-76
2022/02/06 01:41:42;;;;;;;75.97;9.43;;;;;;;6.53;100.00;100934.91;5072939;28;20135;-76
2022/02/06 01:44:45;;;;;;;56.75;8.15;;;;;;;6.55;100.00;100931.31;5072997;28;20043;-76
2022/02/06 02:01:15;;;;;;;72.50;9.40;;;;;;;6.59;100.00;100901.06;5072671;28;20035;-75
2022/02/06 02:17:57;;;;;;;62.10;8.32;;;;;;;6.54;100.00;100919.91;5071748;28;20122;-75
2022/02/06 02:33:09;;;;;;;56.78;7.13;;;;;;;6.47;100.00;100873.72;5076352;28;20473;-75
2022/02/06 02:46:32;;;;;;;46.92;6.40;;;;;;;6.51;100.00;100840.84;5076012;28;20063;-77
2022/02/06 02:48:59;;;;;;;52.78;7.97;;;;;;;6.48;100.00;100836.59;5076474;28;20031;-76
2022/02/06 02:51:29;;;;;;;55.60;7.30;;;;;;;6.50;100.00;100847.06;5076077;28;20032;-76
2022/02/06 02:53:59;;;;;;;51.28;8.55;;;;;;;6.48;100.00;100835.78;5076036;28;20036;-76
2022/02/06 02:56:38;;;;;;;50.33;6.38;;;;;;;6.51;100.00;100828.44;5076063;28;20040;-74
2022/02/06 02:59:20;;;;;;;57.45;7.57;;;;;;;6.48;100.00;100825.19;5076281;28;20031;-76
2022/02/06 03:02:00;;;;;;;48.90;6.53;;;;;;;6.49;100.00;100848.00;5075885;28;20064;-76
2022/02/06 03:04:26;;;;;;;48.88;6.35;;;;;;;6.50;100.00;100825.91;5075864;28;20044;-76
2022/02/06 03:06:51;;;;;;;53.20;7.10;;;;;;;6.49;100.00;100822.44;5076049;28;20028;-78
2022/02/06 03:09:18;;;;;;;57.55;6.30;;;;;;;6.49;100.00;100835.66;5076212;28;20040;-76
2022/02/06 03:11:44;;;;;;;50.17;7.05;;;;;;;6.52;100.00;100810.78;5076289;28;20032;-77
2022/02/06 03:14:17;;;;;;;64.05;7.25;;;;;;;6.48;100.00;100826.03;5074605;28;20032;-76
2022/02/06 03:16:49;;;;;;;56.08;7.75;;;;;;;6.51;100.00;100819.69;5076164;28;20101;-78
2022/02/06 03:19:17;;;;;;;69.82;8.57;;;;;;;6.51;100.00;100823.16;5074888;28;20451;-77
2022/02/06 03:21:45;;;;;;;49.17;6.57;;;;;;;6.53;100.00;100801.91;5075553;28;20116;-79
2022/02/06 03:26:42;;;;;;;;;;;;;;;6.57;100.00;100791.94;5076258;28;20473;-79
2022/02/06 03:29:07;;;;;;;60.00;6.82;;;;;;;6.56;100.00;100799.03;5075417;28;19916;-78
2022/02/06 03:31:32;;;;;;;56.10;7.43;;;;;;;6.58;100.00;100807.66;5074438;28;20071;-77
2022/02/06 03:33:58;;;;;;;46.20;7.60;;;;;;;6.60;100.00;100783.75;5073729;28;20130;-78
2022/02/06 03:36:23;;;;;;;48.35;8.02;;;;;;;6.63;100.00;100787.03;5075101;28;20388;-77
2022/02/06 03:38:51;;;;;;;43.05;6.95;;;;;;;6.65;100.00;100794.84;5075569;28;20123;-79
2022/02/06 03:41:18;;;;;;;46.47;5.93;;;;;;;6.65;100.00;100785.09;5075483;28;20039;-78
2022/02/06 03:46:17;;;;;;;40.20;6.80;;;;;;;6.67;100.00;100774.41;5075151;28;20396;-78
2022/02/06 03:51:19;;;;;;;48.30;7.20;;;;;;;6.72;100.00;100774.94;5075514;28;20477;-77
2022/02/06 03:53:47;;;;;;;35.25;5.78;;;;;;;6.77;100.00;100758.72;5075213;28;20410;-78
2022/02/06 03:56:13;;;;;;;47.40;5.88;;;;;;;6.76;100.00;100765.78;5074936;28;20035;-77
2022/02/06 03:58:38;;;;;;;45.17;6.60;;;;;;;6.80;100.00;100790.22;5075267;28;20099;-80
2022/02/06 04:01:04;;;;;;;58.13;8.15;;;;;;;6.79;100.00;100754.13;5074780;28;20064;-79
2022/02/06 04:03:29;;;;;;;50.92;6.50;;;;;;;6.78;100.00;100748.03;5075149;28;20033;-78
2022/02/06 04:05:55;;;;;;;52.47;7.03;;;;;;;6.81;100.00;100742.50;5074940;28;20068;-80
2022/02/06 04:08:21;;;;;;;48.90;6.43;;;;;;;6.81;100.00;100736.38;5075210;28;20464;-79
2022/02/06 04:10:50;;;;;;;53.67;6.90;;;;;;;6.84;100.00;100744.91;5074558;28;20519;-80
2022/02/06 04:13:20;;;;;;;55.92;7.82;;;;;;;6.92;100.00;100740.84;5074612;28;20033;-79
2022/02/06 04:15:49;;;;;;;53.92;6.63;;;;;;;6.93;100.00;100716.91;5075065;28;20440;-78
2022/02/06 04:18:19;;;;;;;52.15;7.15;;;;;;;6.91;100.00;100700.28;5074674;28;20024;-80
2022/02/06 04:20:44;;;;;;;43.28;6.63;;;;;;;6.95;99.96;100714.16;5074473;28;20507;-78
2022/02/06 04:23:10;;;;;;;58.92;6.60;;;;;;;6.92;100.00;100709.94;5074350;28;20029;-77
2022/02/06 04:25:36;;;;;;;58.55;7.68;;;;;;;6.91;100.00;100695.00;5074373;28;20040;-78
2022/02/06 04:28:03;;;;;;;47.65;6.95;;;;;;;6.89;99.71;100694.28;5073862;28;20036;-77
2022/02/06 04:30:28;;;;;;;39.83;6.38;;;;;;;6.88;99.97;100719.91;5073942;28;20527;-78
2022/02/06 04:32:54;;;;;;;54.42;6.57;;;;;;;6.89;99.73;100689.00;5074366;28;20037;-80
2022/02/06 04:35:28;;;;;;;48.80;6.50;;;;;;;6.91;99.26;100699.47;5074162;28;20036;-77
2022/02/06 04:40:41;;;;;;;49.78;6.68;;;;;;;6.92;99.13;100680.00;5074827;28;20353;-76
2022/02/06 05:13:47;;;;;;;44.58;6.50;;;;;;;6.99;98.95;100605.31;5073525;28;20048;-80
2022/02/06 05:15:51;;;;;;;42.13;6.22;;;;;;;6.99;99.10;100593.91;5073406;28;20401;-79
2022/02/06 05:21:35;;;;;;;44.80;7.18;;;;;;;7.03;98.97;100612.06;5072932;28;20066;-80
2022/02/06 05:31:59;;;;;;;42.05;5.60;;;;;;;7.08;98.51;100614.34;5073199;28;20077;-80
2022/02/06 05:34:24;;;;;;;44.75;6.45;;;;;;;7.04;98.51;100597.84;5073462;28;20449;-80
2022/02/06 05:36:50;;;;;;;41.08;6.03;;;;;;;7.03;98.93;100579.47;5072944;28;20043;-80
2022/02/06 05:39:15;;;;;;;43.60;5.78;;;;;;;7.02;99.04;100594.50;5073039;28;20090;-80
2022/02/06 05:41:40;;;;;;;41.50;5.97;;;;;;;7.02;99.21;100585.72;5073485;28;20032;-80
2022/02/06 05:44:06;;;;;;;43.03;5.55;;;;;;;7.05;98.83;100569.63;5073232;28;20126;-77
2022/02/06 05:46:32;;;;;;;39.95;5.90;;;;;;;7.08;98.86;100590.53;5073080;28;20421;-78
2022/02/06 05:48:57;;;;;;;54.20;5.45;;;;;;;7.06;98.92;100580.06;5073207;28;20024;-80
2022/02/06 05:51:23;;;;;;;41.75;6.07;;;;;;;7.04;98.68;100586.44;5073002;28;20025;-78
2022/02/06 05:53:48;;;;;;;45.65;6.30;;;;;;;7.06;98.65;100566.84;5073215;28;20475;-79
2022/02/06 05:56:16;;;;;;;58.72;8.07;;;;;;;7.09;98.44;100571.06;5076754;28;20028;-78
2022/02/06 05:58:46;;;;;;;40.03;6.75;;;;;;;7.09;98.32;100571.06;5077121;28;20036;-79
2022/02/06 06:01:11;;;;;;;50.47;6.13;;;;;;;7.10;98.24;100556.00;5077128;28;20119;-79
2022/02/06 06:03:37;;;;;;;48.35;7.03;;;;;;;7.09;98.65;100563.13;5077066;28;20124;-79
2022/02/06 06:06:03;;;;;;;42.55;6.47;;;;;;;7.07;98.67;100535.94;5077498;28;20075;-77
2022/02/06 06:08:28;;;;;;;48.38;7.07;;;;;;;7.10;98.59;100542.78;5077037;28;20150;-80
2022/02/06 06:10:54;;;;;;;42.67;6.07;;;;;;;7.10;98.53;100532.19;5076869;28;20040;-78
2022/02/06 06:13:19;;;;;;;53.35;7.35;;;;;;;7.11;98.38;100524.13;5076451;28;20066;-80
2022/02/06 06:15:45;;;;;;;52.38;7.47;;;;;;;7.12;98.24;100541.69;5076886;28;20032;-78
2022/02/06 06:18:13;;;;;;;47.95;7.15;;;;;;;7.12;97.93;100524.97;5076860;28;20119;-80
2022/02/06 06:20:39;;;;;;;44.33;7.00;;;;;;;7.09;98.21;100510.19;5077203;28;20048;-77
2022/02/06 06:23:05;;;;;;;39.03;6.15;;;;;;;7.11;97.77;100508.25;5076011;28;20115;-79
2022/02/06 06:25:41;;;;;;;44.20;7.03;;;;;;;7.13;97.74;100513.44;5076256;28;20163;-78
2022/02/06 06:28:07;;;;;;;39.85;5.45;;;;;;;7.14;97.66;100509.81;5076889;28;20028;-82
2022/02/06 06:30:35;;;;;;;47.83;6.32;;;;;;;7.13;97.30;100489.63;5076881;28;20058;-80
2022/02/06 06:33:05;;;;;;;41.92;6.80;;;;;;;7.18;97.19;100492.72;5076652;28;20037;-77
2022/02/06 06:35:30;;;;;;;42.47;7.43;;;;;;;7.21;96.92;100479.22;5076586;28;20041;-80
2022/02/06 06:37:58;;;;;;;40.47;6.55;;;;;;;7.19;97.22;100484.66;5076400;28;20037;-79
2022/02/06 06:40:24;;;;;;;38.70;6.05;;;;;;;7.17;97.36;100483.13;5076362;28;20035;-79
2022/02/06 06:42:50;;;;;;;48.92;6.97;;;;;;;7.20;97.28;100475.75;5076608;28;20032;-80
2022/02/06 06:45:15;;;;;;;38.65;5.85;;;;;;;7.22;96.90;100470.34;5075284;28;20102;-81
2022/02/06 06:47:41;;;;;;;37.75;5.95;;;;;;;7.24;96.87;100468.41;5076117;28;20528;-80
2022/02/06 06:50:06;;;;;;;42.58;6.47;;;;;;;7.26;96.88;100463.00;5076192;28;20029;-80
2022/02/06 06:52:32;;;;;;;51.05;7.20;;;;;;;7.23;97.06;100451.69;5076215;28;20032;-80
2022/02/06 06:55:03;;;;;;;41.75;6.68;;;;;;;7.26;96.96;100452.41;5075547;28;20422;-81
2022/02/06 06:57:35;;;;;;;50.13;6.30;;;;;;;7.30;96.82;100452.03;5075679;28;20051;-78
2022/02/06 07:02:32;;;;;;;;;;;;;;;7.30;96.96;100437.94;5076624;28;20047;-80
2022/02/06 07:05:04;;;;;;;49.00;6.18;;;;;;;7.29;96.94;100447.69;5075998;28;19908;-79
2022/02/06 07:07:30;;;;;;;45.60;6.90;;;;;;;7.27;97.29;100439.06;5074483;28;20032;-81
2022/02/06 07:09:56;;;;;;;49.03;6.93;;;;;;;7.19;97.99;100415.03;5075824;28;20035;-80
2022/02/06 07:12:22;;;;;;;51.58;6.60;;;;;;;7.13;98.79;100423.47;5075423;28;20032;-79
2022/02/06 07:14:49;;;;;;;46.47;6.60;;;;;;;7.09;99.27;100414.09;5074483;28;20028;-79
2022/02/06 07:17:15;;;;;;;44.78;6.20;;;;;;;7.03;99.82;100397.78;5074596;28;20362;-81
2022/02/06 07:19:41;;;;;;;52.33;8.02;;;;;;;6.98;100.00;100402.59;5075427;28;20055;-79
2022/02/06 07:22:11;;;;;;;43.58;7.43;;;;;;;6.95;100.00;100386.97;5075596;28;20132;-78
2022/02/06 07:24:37;;;;;;;54.67;8.40;;;;;;;6.93;100.00;100386.28;5075324;28;20024;-77
2022/02/06 07:27:14;;;;;;;54.15;6.70;;;;;;;6.88;100.00;100368.16;5075701;28;20025;-79
2022/02/06 07:29:40;;;;;;;51.97;7.68;;;;;;;6.84;100.00;100374.66;5075784;28;20033;-78
2022/02/06 07:32:06;;;;;;;62.67;8.57;;;;;;;6.80;100.00;100370.56;5075448;28;20354;-78
2022/02/06 07:34:31;;;;;;;51.35;6.30;;;;;;;6.78;100.00;100358.47;5075276;28;20025;-77
2022/02/06 07:36:56;;;;;;;51.97;7.82;;;;;;;6.79;100.00;100342.47;5074369;28;20037;-76
2022/02/06 07:39:21;;;;;;;58.65;6.95;;;;;;;6.77;100.00;100330.34;5075038;28;20438;-76
2022/02/06 07:41:47;;;;;;;52.40;7.55;;;;;;;6.78;100.00;100343.44;5074922;28;20544;-76
2022/02/06 07:44:12;;;;;;;54.70;7.28;;;;;;;6.79;100.00;100337.19;5074959;28;20488;-78
2022/02/06 07:46:43;;;;;;;60.85;7.97;;;;;;;6.80;100.00;100327.44;5075248;28;20024;-76
2022/02/06 07:49:09;;;;;;;59.80;8.23;;;;;;;6.80;100.00;100335.38;5075399;28;20119;-77
2022/02/06 07:51:35;;;;;;;48.20;7.15;;;;;;;6.79;100.00;100312.53;5074333;28;20142;-76
2022/02/06 07:54:02;;;;;;;49.03;7.70;;;;;;;6.76;100.00;100299.56;5075658;28;20107;-75
2022/02/06 07:56:27;;;;;;;60.42;6.72;;;;;;;6.78;100.00;100305.56;5074865;28;20052;-76
2022/02/06 07:58:53;;;;;;;46.47;6.13;;;;;;;6.78;100.00;100293.19;5075384;28;20118;-76
2022/02/06 08:01:18;;;;;;;49.40;7.80;;;;;;;6.76;100.00;100295.09;5075154;28;20128;-76
2022/02/06 08:03:43;;;;;;;55.80;7.55;;;;;;;6.78;100.00;100255.34;5074754;28;20029;-76
2022/02/06 08:06:10;;;;;;;51.83;7.32;;;;;;;6.79;100.00;100284.28;5075287;28;20032;-76
2022/02/06 08:08:36;;;;;;;50.38;7.15;;;;;;;6.79;100.00;100267.56;5074597;28;20037;-76
2022/02/06 08:11:03;;;;;;;40.83;7.13;;;;;;;6.76;100.00;100265.19;5074463;28;20028;-76
2022/02/06 08:16:14;;;;;;;49.58;6.68;;;;;;;6.71;100.00;100247.88;5074655;28;20124;-76
2022/02/06 08:18:41;;;;;;;57.65;6.75;;;;;;;6.73;100.00;100236.34;5074422;28;20427;-75
2022/02/06 08:21:08;;;;;;;56.55;7.68;;;;;;;6.74;100.00;100230.13;5072317;28;20143;-73
2022/02/06 08:23:33;;;;;;;58.47;8.27;;;;;;;6.74;100.00;100219.53;5074464;28;20043;-76
2022/02/06 08:25:59;;;;;;;46.33;6.60;;;;;;;6.74;100.00;100227.47;5074092;28;20032;-75
2022/02/06 08:28:25;;;;;;;56.58;7.47;;;;;;;6.72;100.00;100214.38;5074459;28;20440;-79
2022/02/06 08:30:50;;;;;;;58.58;7.18;;;;;;;6.70;100.00;100208.38;5073454;28;20377;-77
2022/02/06 08:33:16;;;;;;;46.22;6.88;;;;;;;6.69;100.00;100173.16;5072420;28;20090;-75
2022/02/06 08:35:41;;;;;;;50.25;6.63;;;;;;;6.69;100.00;100170.53;5072842;28;20119;-75
2022/02/06 08:38:08;;;;;;;61.30;7.55;;;;;;;6.68;100.00;100173.31;5073816;28;20037;-77
2022/02/06 08:40:33;;;;;;;44.25;6.15;;;;;;;6.71;100.00;100167.75;5073616;28;20033;-75
2022/02/06 08:42:59;;;;;;;58.13;7.10;;;;;;;6.70;100.00;100159.00;5073596;28;20033;-75
2022/02/06 08:45:28;;;;;;;41.88;6.38;;;;;;;6.74;100.00;100150.78;5073554;28;20043;-75
2022/02/06 08:47:53;;;;;;;37.25;5.68;;;;;;;6.73;100.00;100127.97;5073687;28;20127;-77
2022/02/06 08:50:19;;;;;;;48.63;6.25;;;;;;;6.73;100.00;100139.38;5073530;28;20052;-75
2022/02/06 08:52:44;;;;;;;41.22;5.85;;;;;;;6.73;100.00;100157.88;5073445;28;20043;-74
2022/02/06 08:55:11;;;;;;;38.95;6.53;;;;;;;6.75;100.00;100133.94;5073180;28;20483;-77
2022/02/06 08:57:43;;;;;;;44.38;6.65;;;;;;;6.75;100.00;100097.78;5073738;28;20041;-76
2022/02/06 09:00:10;;;;;;;34.55;5.68;;;;;;;6.78;100.00;100116.03;5073399;28;20044;-75
2022/02/06 09:02:35;;;;;;;43.38;7.60;;;;;;;6.78;100.00;100084.28;5073264;28;20032;-76
2022/02/06 09:05:02;;;;;;;46.53;7.10;;;;;;;6.77;100.00;100105.59;5073208;28;20174;-76
2022/02/06 09:07:28;;;;;;;43.20;5.93;;;;;;;6.77;100.00;100095.00;5073108;28;20495;-79
2022/02/06 09:09:58;;;;;;;35.33;5.78;;;;;;;6.76;100.00;100090.69;5073287;28;20064;-76
2022/02/06 09:12:24;;;;;;;48.92;6.10;;;;;;;6.76;100.00;100086.22;5073426;28;20075;-75
2022/02/06 09:14:49;;;;;;;48.25;7.45;;;;;;;6.76;100.00;100067.72;5073428;28;20104;-77
2022/02/06 09:17:16;;;;;;;48.25;6.88;;;;;;;6.79;100.00;100066.63;5073367;28;20456;-76
2022/02/06 09:19:42;;;;;;;37.97;6.78;;;;;;;6.77;100.00;100058.00;5072840;28;20158;-78
2022/02/06 09:22:08;;;;;;;41.38;6.65;;;;;;;6.77;100.00;100060.63;5073304;28;20051;-75
2022/02/06 09:24:35;;;;;;;48.13;6.95;;;;;;;6.78;100.00;100047.28;5072848;28;20111;-78
2022/02/06 09:27:00;;;;;;;44.55;5.82;;;;;;;6.81;100.00;100062.03;5072958;28;20040;-76
2022/02/06 09:29:25;;;;;;;41.60;7.57;;;;;;;6.80;100.00;100058.53;5072412;28;20392;-76
2022/02/06 09:31:52;;;;;;;41.38;5.93;;;;;;;6.80;100.00;100045.31;5071604;28;20118;-74
2022/02/06 09:36:44;;;;;;;46.85;6.28;;;;;;;6.79;100.00;100048.97;5072898;28;20048;-77
2022/02/06 09:39:11;;;;;;;41.95;5.93;;;;;;;6.79;100.00;100024.31;5072855;28;20032;-73
2022/02/06 09:41:41;;;;;;;46.90;6.20;;;;;;;6.78;100.00;100022.66;5072829;28;20038;-76
2022/02/06 09:44:08;;;;;;;39.33;5.88;;;;;;;6.78;100.00;100025.31;5072775;28;20380;-75
2022/02/06 09:46:35;;;;;;;46.17;7.03;;;;;;;6.79;100.00;100030.44;5072767;28;20040;-81
2022/02/06 09:49:02;;;;;;;38.08;5.55;;;;;;;6.81;100.00;99991.47;5072647;28;20044;-74
2022/02/06 09:51:28;;;;;;;47.78;5.85;;;;;;;6.81;100.00;99985.38;5072714;28;20029;-76
2022/02/06 09:53:54;;;;;;;35.38;5.65;;;;;;;6.85;100.00;99997.31;5072756;28;20131;-77
2022/02/06 09:56:22;;;;;;;42.60;5.93;;;;;;;6.85;100.00;99990.25;5072517;28;20029;-76
2022/02/06 09:59:01;;;;;;;46.90;6.75;;;;;;;6.87;100.00;99990.94;5072636;28;20032;-73
2022/02/06 10:01:27;;;;;;;39.28;5.95;;;;;;;6.86;100.00;99972.56;5072834;28;20032;-75
2022/02/06 10:04:16;;;;;;;51.80;6.85;;;;;;;6.86;100.00;99972.56;5072475;28;20476;-74
2022/02/06 10:06:52;;;;;;;45.70;6.53;;;;;;;6.89;100.00;99945.84;5072684;28;20056;-76
2022/02/06 10:09:25;;;;;;;54.67;6.65;;;;;;;6.95;100.00;99962.97;5073069;28;20437;-75
2022/02/06 10:11:55;;;;;;;50.38;6.63;;;;;;;6.94;100.00;99966.59;5072937;28;20086;-76
2022/02/06 10:14:20;;;;;;;37.47;5.63;;;;;;;6.98;100.00;99942.38;5072547;28;20020;-76
2022/02/06 10:16:46;;;;;;;36.70;5.75;;;;;;;6.98;100.00;99939.72;5071033;28;20538;-76
2022/02/06 10:19:15;;;;;;;55.60;6.90;;;;;;;6.97;100.00;99930.13;5071949;28;20573;-76
2022/02/06 10:21:42;;;;;;;45.70;6.10;;;;;;;6.99;100.00;99936.13;5072740;28;20039;-80
2022/02/06 10:24:13;;;;;;;43.00;5.90;;;;;;;7.00;100.00;99924.56;5072112;28;20460;-77
2022/02/06 10:31:40;;;;;;;41.90;6.07;;;;;;;7.02;100.00;99921.78;5071781;28;20074;-75
2022/02/06 10:34:19;;;;;;;35.60;5.63;;;;;;;7.09;100.00;99901.75;5072186;28;20029;-76
2022/02/06 10:36:45;;;;;;;41.20;5.68;;;;;;;7.13;100.00;99907.56;5072719;28;20020;-73
2022/02/06 10:39:10;;;;;;;36.22;5.05;;;;;;;7.12;100.00;99919.13;5072180;28;20036;-75
2022/02/06 10:41:44;;;;;;;43.58;5.38;;;;;;;7.19;100.00;99893.78;5074654;28;20421;-76
2022/02/06 10:44:09;;;;;;;44.30;5.20;;;;;;;7.19;100.00;99936.13;5076189;28;20040;-71
2022/02/06 10:46:58;;;;;;;39.55;5.35;;;;;;;7.13;100.00;100006.28;5076140;28;20381;-80
2022/02/06 10:49:25;;;;;;;27.08;3.75;;;;;;;6.53;99.18;100030.88;5076210;28;20091;-76
2022/02/06 10:51:51;;;;;;;14.55;2.20;;;;;;;6.08;95.74;100062.91;5075637;28;20082;-75
2022/02/06 10:54:30;;;;;;;16.55;2.20;;;;;;;5.75;96.42;100066.53;5075816;28;20457;-76
2022/02/06 10:57:01;;;;;;;14.25;2.13;;;;;;;5.53;98.11;100056.91;5076218;28;20028;-76
2022/02/06 10:59:28;;;;;;;17.92;2.83;;;;;;;5.38;99.29;100062.47;5075795;28;20055;-75
2022/02/06 11:01:54;;;;;;;15.23;2.60;;;;;;;5.28;100.00;100051.84;5075400;28;20050;-74
2022/02/06 11:04:33;;;;;;;19.52;2.50;;;;;;;5.19;100.00;100060.47;5075559;28;20037;-74
2022/02/06 11:07:16;;;;;;;16.13;1.90;;;;;;;5.15;100.00;100066.13;5076042;28;20028;-75
2022/02/06 11:09:42;;;;;;;19.30;2.30;;;;;;;5.11;100.00;100073.44;5076063;28;20033;-76
2022/02/06 11:12:13;;;;;;;24.92;2.83;;;;;;;5.05;100.00;100074.78;5075631;28;20366;-75
2022/02/06 11:14:45;;;;;;;19.60;2.33;;;;;;;5.02;100.00;100079.47;5075465;28;20029;-76
2022/02/06 11:17:22;;;;;;;19.65;2.50;;;;;;;4.99;100.00;100075.25;5075683;28;20056;-74
2022/02/06 11:19:58;;;;;;;12.85;2.03;;;;;;;4.97;100.00;100094.78;5075341;28;20064;-78
2022/02/06 11:22:24;;;;;;;18.15;2.63;;;;;;;4.97;100.00;100098.28;5075481;28;20087;-76
2022/02/06 11:24:50;;;;;;;21.15;2.25;;;;;;;4.97;100.00;100097.44;5075483;28;20040;-78
2022/02/06 11:27:16;;;;;;;13.40;2.03;;;;;;;4.99;100.00;100098.16;5075172;28;20445;-76
2022/02/06 11:29:41;;;;;;;17.67;2.70;;;;;;;5.03;100.00;100113.63;5075020;28;20043;-76
2022/02/06 11:32:07;;;;;;;23.73;2.55;;;;;;;5.06;100.00;100123.06;5075556;28;20029;-76
2022/02/06 11:34:33;;;;;;;14.45;2.58;;;;;;;5.09;100.00;100131.59;5075163;28;20028;-76
2022/02/06 11:45:32;;;;;;;15.35;2.13;;;;;;;5.15;98.84;100051.16;5075133;28;20525;-75
2022/02/06 11:48:04;;;;;;;9.27;1.33;;;;;;;5.20;98.73;100067.44;5074608;28;20036;-75
2022/02/06 11:50:31;;;;;;;12.15;1.40;;;;;;;5.29;98.41;100081.69;5074846;28;20124;-76
2022/02/06 11:52:59;;;;;;;18.83;2.03;;;;;;;5.36;98.06;100079.38;5073979;28;20039;-76
2022/02/06 11:55:43;;;;;;;10.27;1.50;;;;;;;5.43;97.38;100083.19;5074240;28;20430;-75
2022/02/06 11:58:33;;;;;;;15.77;1.83;;;;;;;5.45;96.22;100079.47;5074402;28;20063;-74
2022/02/06 12:01:08;;;;;;;6.72;1.30;;;;;;;5.47;95.90;100085.47;5075073;28;20093;-75
2022/02/06 12:04:01;;;;;;;20.48;1.60;;;;;;;5.52;95.48;100087.72;5074580;28;20028;-77
2022/02/06 12:06:50;;;;;;;13.20;1.73;;;;;;;5.57;95.45;100097.91;5074341;28;20429;-77
2022/02/06 12:09:21;;;;;;;10.55;2.00;;;;;;;5.61;96.10;100102.84;5063204;28;20050;-76
2022/02/06 12:12:04;;;;;;;18.47;2.20;;;;;;;5.69;96.59;100106.63;5074120;28;20033;-75
2022/02/06 12:14:40;;;;;;;16.83;1.70;;;;;;;5.73;97.23;100100.13;5074973;28;20310;-76
2022/02/06 12:20:04;;;;;;;16.35;2.08;;;;;;;5.91;97.78;100089.84;5074014;28;20087;-79
2022/02/06 12:22:30;;;;;;;18.33;2.60;;;;;;;6.03;97.66;100096.81;5073729;28;20051;-78
2022/02/06 12:25:34;;;;;;;18.85;2.50;;;;;;;6.22;98.10;100095.25;5073914;28;20468;-80
2022/02/06 12:28:16;;;;;;;26.85;2.65;;;;;;;6.38;97.27;100103.56;5073719;28;20511;-78
2022/02/06 12:30:42;;;;;;;20.25;2.70;;;;;;;6.53;96.71;100093.50;5074668;28;20090;-76
2022/02/06 12:33:32;;;;;;;16.08;2.85;;;;;;;6.64;96.02;100109.28;5074070;28;20029;-78
2022/02/06 12:38:44;;;;;;;18.08;2.83;;;;;;;6.75;94.15;100099.56;5073677;28;20114;-76
2022/02/06 12:41:43;;;;;;;26.85;2.70;;;;;;;6.77;94.23;100098.47;5073774;28;20098;-76
2022/02/06 12:44:11;;;;;;;26.23;2.65;;;;;;;6.81;93.78;100102.53;5073241;28;20111;-78
2022/02/06 12:46:38;;;;;;;18.85;1.95;;;;;;;6.84;92.92;100091.69;5073535;28;20108;-77
2022/02/06 12:49:04;;;;;;;16.10;2.17;;;;;;;6.90;91.47;100111.47;5073658;28;20051;-76
2022/02/06 12:51:32;;;;;;;18.08;2.25;;;;;;;6.95;92.47;100119.84;5073607;28;20108;-76
2022/02/06 12:54:11;;;;;;;13.13;2.45;;;;;;;7.03;91.01;100119.16;5073738;28;20028;-76
2022/02/06 12:56:41;;;;;;;20.23;3.13;;;;;;;7.11;92.22;100113.25;5073418;28;20037;-76
2022/02/06 12:59:09;;;;;;;7.63;1.52;;;;;;;7.15;91.35;100118.13;5073159;28;20111;-77
2022/02/06 13:01:41;;;;;;;13.50;2.08;;;;;;;7.14;90.06;100102.38;5072618;28;20036;-77
2022/02/06 13:04:09;;;;;;;11.52;1.92;;;;;;;7.18;89.33;100106.41;5072237;28;20036;-77
2022/02/06 13:06:49;;;;;;;15.35;3.13;;;;;;;7.26;89.85;100105.75;5072924;28;20033;-75
2022/02/06 13:09:22;;;;;;;19.67;2.28;;;;;;;7.17;89.30;100118.00;5073187;28;20051;-77
2022/02/06 13:12:06;;;;;;;16.33;2.15;;;;;;;7.26;89.46;100111.06;5073450;28;20055;-78
2022/02/06 13:17:36;;;;;;;12.90;2.00;;;;;;;7.13;88.59;100116.56;5072908;28;20119;-78
2022/02/06 13:34:21;;;;;;;8.55;1.88;;;;;;;7.18;86.93;100135.50;5072964;28;20357;-76
2022/02/06 13:38:51;;;;;;;12.02;2.10;;;;;;;7.10;86.09;100140.66;5073155;28;20119;-76
2022/02/06 13:41:20;;;;;;;11.60;2.85;;;;;;;7.08;86.69;100146.06;5072683;28;20067;-75
2022/02/06 13:43:49;;;;;;;9.68;2.00;;;;;;;7.01;85.86;100137.81;5072612;28;20028;-77
2022/02/06 13:46:16;;;;;;;12.57;2.08;;;;;;;7.00;85.86;100137.97;5072307;28;20024;-76
2022/02/06 13:48:45;;;;;;;10.57;2.10;;;;;;;7.00;85.99;100137.97;5072340;28;20362;-77
2022/02/06 13:51:10;;;;;;;13.02;2.00;;;;;;;7.02;84.90;100125.44;5073106;28;20036;-77
2022/02/06 13:53:36;;;;;;;10.52;1.77;;;;;;;7.12;83.86;100149.28;5073482;28;20082;-76
2022/02/06 13:56:03;;;;;;;9.82;1.95;;;;;;;7.21;83.14;100144.03;5072801;28;20041;-76
2022/02/06 13:58:30;;;;;;;10.73;1.75;;;;;;;7.21;83.48;100151.13;5072808;28;20067;-76
2022/02/06 14:00:57;;;;;;;11.00;1.98;;;;;;;7.32;83.14;100145.72;5073201;28;20086;-77
2022/02/06 14:03:23;;;;;;;15.00;2.22;;;;;;;7.48;82.75;100147.88;5072649;28;20033;-77
2022/02/06 14:05:51;;;;;;;13.32;2.67;;;;;;;7.63;81.33;100160.72;5072976;28;20116;-77
2022/02/06 14:08:18;;;;;;;12.98;2.58;;;;;;;7.93;80.02;100139.41;5072347;28;20040;-78
2022/02/06 14:11:01;;;;;;;14.10;1.80;;;;;;;7.98;79.63;100157.53;5072255;28;20032;-76
2022/02/06 14:13:28;;;;;;;18.25;2.30;;;;;;;7.88;79.50;100152.25;5072511;28;20028;-76